KHRL/HRL METAR and TAF weather

Enter ICAO airport designator
Station Type Date Time Source
KHRL METAR 2021/05/17 21:52 UTC NOAA

KHRL 172152Z 15019G25KT 10SM BKN032 31/24 A2970 RMK AO2 PK WND 16026/2124 SLP057 T03060239


Station Type Date Time Source
KHRL Decoded METAR 2021/05/17 21:52 UTC NOAA

RIO GRANDE VALLEY, TX, United States (KHRL) 26-13N 97-39W 10M
May 17, 2021 - 05:52 PM EDT / 2021.05.17 2152 UTC
Wind: from the SSE (150 degrees) at 22 MPH (19 KT) gusting to 29 MPH (25 KT):0
Visibility: 10 mile(s):0
Sky conditions: mostly cloudy
Temperature: 87.1 F (30.6 C)
Heat index: 96.4 F (35.8 C):1
Dew Point: 75.0 F (23.9 C)
Relative Humidity: 67%
Pressure (altimeter): 29.7 in. Hg (1005 hPa)
ob: KHRL 172152Z 15019G25KT 10SM BKN032 31/24 A2970 RMK AO2 PK WND 16026/2124 SLP057 T03060239
cycle: 22

Station Type Date Time Source
KHRL TAF 2021/05/17 18:21 UTC NOAA

TAF KHRL 171720Z 1718/1818 15022G30KT P6SM BKN035
FM180200 15013G18KT P6SM BKN015
FM181400 16020G28KT P6SM BKN030

Example: see airport list